createdAt,value
2019-04-26T00:00:29.972Z,14.90
2019-04-26T00:03:02.205Z,14.90
2019-04-26T00:05:35.865Z,15.40
2019-04-26T00:08:04.069Z,15.10
2019-04-26T00:11:01.901Z,14.40
2019-04-26T00:13:49.406Z,14.40
2019-04-26T00:16:25.431Z,15.00
2019-04-26T00:18:55.293Z,15.30
2019-04-26T00:21:25.435Z,15.40
2019-04-26T00:23:55.600Z,15.30
2019-04-26T00:26:26.122Z,15.50
2019-04-26T00:28:56.013Z,14.90
2019-04-26T00:31:25.749Z,14.70
2019-04-26T00:33:56.467Z,14.90
2019-04-26T00:36:26.261Z,14.50
2019-04-26T00:38:56.283Z,14.30
2019-04-26T00:41:26.712Z,14.50
2019-04-26T00:43:56.608Z,14.40
2019-04-26T00:46:29.180Z,14.10
2019-04-26T00:49:02.063Z,14.30
2019-04-26T00:51:32.802Z,14.40
2019-04-26T00:54:02.989Z,14.80
2019-04-26T00:56:33.606Z,15.00
2019-04-26T00:59:04.453Z,15.20
2019-04-26T01:01:37.423Z,14.40
2019-04-26T01:04:08.077Z,14.60
2019-04-26T01:06:40.613Z,14.80
2019-04-26T01:09:13.059Z,14.60
2019-04-26T01:11:43.580Z,14.00
2019-04-26T01:14:15.494Z,14.10
2019-04-26T01:16:46.703Z,13.90
2019-04-26T01:19:18.951Z,14.30
2019-04-26T01:21:53.047Z,13.90
2019-04-26T01:24:25.440Z,13.80
2019-04-26T01:26:58.930Z,14.30
2019-04-26T01:29:30.738Z,14.50
2019-04-26T01:32:06.317Z,14.30
2019-04-26T01:34:37.487Z,14.40
2019-04-26T01:37:07.996Z,14.40
2019-04-26T01:39:40.307Z,14.10
2019-04-26T01:42:24.242Z,14.40
2019-04-26T01:45:16.494Z,14.60
2019-04-26T01:47:48.245Z,14.30
2019-04-26T01:50:19.349Z,14.40
2019-04-26T01:52:51.021Z,14.90
2019-04-26T01:55:22.922Z,14.60
2019-04-26T01:57:54.118Z,14.10
2019-04-26T02:00:44.327Z,13.80
2019-04-26T02:03:19.314Z,13.60
2019-04-26T02:05:50.045Z,13.70
2019-04-26T02:08:22.087Z,13.50
2019-04-26T02:10:53.370Z,13.30
2019-04-26T02:13:28.863Z,13.70
2019-04-26T02:15:58.833Z,14.20
2019-04-26T02:18:29.679Z,14.60
2019-04-26T02:21:29.948Z,14.70
2019-04-26T02:24:05.117Z,14.90
2019-04-26T02:26:39.494Z,14.50
2019-04-26T02:29:15.196Z,13.70
2019-04-26T02:31:48.372Z,13.50
2019-04-26T02:34:18.280Z,13.50
2019-04-26T02:36:58.010Z,13.60
2019-04-26T02:39:23.090Z,14.10
2019-04-26T02:41:55.690Z,14.50
2019-04-26T02:44:31.321Z,14.50
2019-04-26T02:47:41.025Z,14.00
2019-04-26T02:50:17.495Z,14.20
2019-04-26T02:53:11.730Z,14.30
2019-04-26T02:56:18.506Z,14.50
2019-04-26T02:59:07.787Z,14.60
2019-04-26T03:01:38.722Z,14.40
2019-04-26T03:04:09.960Z,14.50
2019-04-26T03:06:43.094Z,14.60
2019-04-26T03:09:15.492Z,14.60
2019-04-26T03:11:48.372Z,14.50
2019-04-26T03:14:44.530Z,14.60
2019-04-26T03:17:27.277Z,14.60
2019-04-26T03:20:04.022Z,14.60
2019-04-26T03:22:46.313Z,14.20
2019-04-26T03:25:51.475Z,14.20
2019-04-26T03:28:39.269Z,14.40
2019-04-26T03:31:39.178Z,14.40
2019-04-26T03:34:26.534Z,14.40
2019-04-26T03:38:00.115Z,14.30
2019-04-26T03:40:45.823Z,14.30
2019-04-26T03:44:06.788Z,14.30
2019-04-26T03:47:04.011Z,14.30
2019-04-26T03:49:54.769Z,14.30
2019-04-26T03:53:18.832Z,14.20
2019-04-26T03:56:42.246Z,14.20
2019-04-26T03:59:46.349Z,14.20
2019-04-26T04:02:43.549Z,14.10
2019-04-26T04:05:37.883Z,14.10
2019-04-26T04:08:14.928Z,14.00
2019-04-26T04:10:54.035Z,14.00
2019-04-26T04:13:46.055Z,13.80
2019-04-26T04:16:46.734Z,12.90
2019-04-26T04:20:05.605Z,13.10
2019-04-26T04:22:41.767Z,13.00
2019-04-26T04:25:15.529Z,13.20
2019-04-26T04:28:03.155Z,13.20
2019-04-26T04:31:05.353Z,13.00
2019-04-26T04:34:14.158Z,12.90
2019-04-26T04:36:50.563Z,12.60
2019-04-26T04:39:32.312Z,12.20
2019-04-26T04:42:37.591Z,12.60
2019-04-26T04:45:48.058Z,12.80
2019-04-26T04:48:50.281Z,12.60
2019-04-26T04:51:44.896Z,12.60
2019-04-26T04:54:29.341Z,13.00
2019-04-26T04:57:20.798Z,12.70
2019-04-26T05:00:11.552Z,12.50
2019-04-26T05:03:09.665Z,13.00
2019-04-26T05:06:07.648Z,12.80
2019-04-26T05:08:55.451Z,13.20
2019-04-26T05:11:34.910Z,13.10
2019-04-26T05:14:17.134Z,12.80
2019-04-26T05:17:30.509Z,12.50
2019-04-26T05:20:31.087Z,13.30
2019-04-26T05:23:42.883Z,13.30
2019-04-26T05:27:30.213Z,13.40
2019-04-26T05:30:58.744Z,13.40
2019-04-26T05:34:06.086Z,13.60
2019-04-26T05:37:12.569Z,13.40
2019-04-26T05:40:12.033Z,13.60
2019-04-26T05:43:45.723Z,13.80
2019-04-26T05:47:25.545Z,14.00
2019-04-26T05:50:39.415Z,13.80
2019-04-26T05:54:06.719Z,13.90
2019-04-26T05:57:10.768Z,13.60
2019-04-26T06:00:42.530Z,13.90
2019-04-26T06:03:33.433Z,14.00
2019-04-26T06:06:33.156Z,13.70
2019-04-26T06:09:52.840Z,14.10
2019-04-26T06:12:31.829Z,14.20
2019-04-26T06:15:43.350Z,14.00
2019-04-26T06:18:43.647Z,14.30
2019-04-26T06:21:27.006Z,14.40
2019-04-26T06:24:39.687Z,14.40
2019-04-26T06:27:56.404Z,14.30
2019-04-26T06:30:45.254Z,14.50
2019-04-26T06:33:39.675Z,14.00
2019-04-26T06:36:17.321Z,14.90
2019-04-26T06:39:18.390Z,15.20
2019-04-26T06:42:46.578Z,15.60
2019-04-26T06:46:17.224Z,15.10
2019-04-26T06:49:23.007Z,15.20
2019-04-26T06:52:08.604Z,14.40
2019-04-26T06:54:57.977Z,14.80
2019-04-26T06:58:13.086Z,13.90
2019-04-26T07:01:11.243Z,14.40
2019-04-26T07:04:22.066Z,14.90
2019-04-26T07:07:51.150Z,14.70
2019-04-26T07:11:00.660Z,15.30
2019-04-26T07:14:00.622Z,15.60
2019-04-26T07:16:38.530Z,15.20
2019-04-26T07:19:17.043Z,15.40
2019-04-26T07:22:35.639Z,15.00
2019-04-26T07:25:57.727Z,15.10
2019-04-26T07:29:07.127Z,15.30
2019-04-26T07:31:53.789Z,15.40
2019-04-26T07:34:55.801Z,15.30
2019-04-26T07:38:04.820Z,14.90
2019-04-26T07:41:32.600Z,15.10
2019-04-26T07:44:28.329Z,15.00
2019-04-26T07:47:24.134Z,15.30
2019-04-26T07:50:31.990Z,15.20
2019-04-26T07:53:42.712Z,15.50
2019-04-26T07:56:41.693Z,15.80
2019-04-26T07:59:48.000Z,15.80
2019-04-26T08:03:02.484Z,16.10
2019-04-26T08:05:50.883Z,14.30
2019-04-26T08:08:23.694Z,15.10
2019-04-26T08:11:11.425Z,15.50
2019-04-26T08:13:57.554Z,16.90
2019-04-26T08:17:00.998Z,15.90
2019-04-26T08:19:33.921Z,15.60
2019-04-26T08:22:18.001Z,15.20
2019-04-26T08:24:41.370Z,15.50
2019-04-26T08:27:23.640Z,16.40
2019-04-26T08:30:03.251Z,16.60
2019-04-26T08:32:35.239Z,16.50
2019-04-26T08:35:28.978Z,16.90
2019-04-26T08:38:07.948Z,16.30
2019-04-26T08:40:38.569Z,15.20
2019-04-26T08:43:31.920Z,15.20
2019-04-26T08:46:27.010Z,16.50
2019-04-26T08:49:13.164Z,14.90
2019-04-26T08:51:45.300Z,16.70
2019-04-26T08:54:21.598Z,17.70
2019-04-26T08:56:59.027Z,18.30
2019-04-26T08:59:32.083Z,16.80
2019-04-26T09:02:29.356Z,15.80
2019-04-26T09:05:37.995Z,16.30
2019-04-26T09:08:09.763Z,16.30
2019-04-26T09:10:43.214Z,18.10
2019-04-26T09:13:17.120Z,17.40
2019-04-26T09:16:20.161Z,16.10
2019-04-26T09:18:54.293Z,16.50
2019-04-26T09:21:37.231Z,15.90
2019-04-26T09:24:31.984Z,18.30
2019-04-26T09:27:10.705Z,18.60
2019-04-26T09:30:17.591Z,17.70
2019-04-26T09:32:51.659Z,18.70
2019-04-26T09:35:21.429Z,19.00
2019-04-26T09:37:51.566Z,18.10
2019-04-26T09:40:22.960Z,18.10
2019-04-26T09:43:10.372Z,18.30
2019-04-26T09:46:07.767Z,17.80
2019-04-26T09:48:42.350Z,16.90
2019-04-26T09:51:12.091Z,15.20
2019-04-26T09:53:43.440Z,18.00
2019-04-26T09:56:13.516Z,18.90
2019-04-26T09:58:43.890Z,18.30
2019-04-26T10:01:13.919Z,16.30
2019-04-26T10:03:43.668Z,17.70
2019-04-26T10:06:13.534Z,18.90
2019-04-26T10:08:46.723Z,16.50
2019-04-26T10:11:16.893Z,18.20
2019-04-26T10:14:14.894Z,19.00
2019-04-26T10:16:54.005Z,18.60
2019-04-26T10:19:34.113Z,19.00
2019-04-26T10:22:03.940Z,19.20
2019-04-26T10:24:35.654Z,19.10
2019-04-26T10:27:05.629Z,18.60
2019-04-26T10:29:35.811Z,18.90
2019-04-26T10:32:05.545Z,18.00
2019-04-26T10:34:37.877Z,17.00
2019-04-26T10:37:08.069Z,17.90
2019-04-26T10:39:37.838Z,17.30
2019-04-26T10:42:07.733Z,17.70
2019-04-26T10:44:39.820Z,17.00
2019-04-26T10:47:09.529Z,17.40
2019-04-26T10:49:43.953Z,17.20
2019-04-26T10:52:25.210Z,17.40
2019-04-26T10:55:07.501Z,14.50
2019-04-26T10:57:39.960Z,15.70
2019-04-26T11:00:17.993Z,17.10
2019-04-26T11:02:47.630Z,17.30
2019-04-26T11:05:19.236Z,17.50
2019-04-26T11:07:48.663Z,16.60
2019-04-26T11:10:18.424Z,15.30
2019-04-26T11:12:48.225Z,14.10
2019-04-26T11:15:18.449Z,14.70
2019-04-26T11:17:49.960Z,15.50
2019-04-26T11:20:20.469Z,16.30
2019-04-26T11:22:51.038Z,15.70
2019-04-26T11:25:20.774Z,15.60
2019-04-26T11:27:50.736Z,16.20
2019-04-26T11:30:21.423Z,16.30
2019-04-26T11:32:51.786Z,13.90
2019-04-26T11:35:21.495Z,14.00
2019-04-26T11:37:55.220Z,14.20
2019-04-26T11:40:44.355Z,13.70
2019-04-26T11:43:15.773Z,14.30
2019-04-26T11:45:45.375Z,13.50
2019-04-26T11:48:16.443Z,14.70
2019-04-26T11:50:48.221Z,13.80
2019-04-26T11:53:18.413Z,13.10
2019-04-26T11:55:48.066Z,12.60
2019-04-26T11:58:22.423Z,14.00
2019-04-26T12:00:54.636Z,14.90
2019-04-26T12:03:25.922Z,14.70
2019-04-26T12:06:04.172Z,14.70
2019-04-26T12:08:40.624Z,15.10
2019-04-26T12:11:18.192Z,14.70
2019-04-26T12:13:42.304Z,14.40
2019-04-26T12:16:14.524Z,14.40
2019-04-26T12:18:44.183Z,14.00
2019-04-26T12:21:15.946Z,14.50
2019-04-26T12:23:46.378Z,15.10
2019-04-26T12:26:17.313Z,15.00
2019-04-26T12:28:48.636Z,15.20
2019-04-26T12:31:19.004Z,15.00
2019-04-26T12:33:49.026Z,14.90
2019-04-26T12:36:18.993Z,14.90
2019-04-26T12:38:49.160Z,15.10
2019-04-26T12:41:25.318Z,15.40
2019-04-26T12:43:54.615Z,15.50
2019-04-26T12:46:38.287Z,15.50
2019-04-26T12:49:09.807Z,15.50
2019-04-26T12:51:48.751Z,15.60
2019-04-26T12:54:21.867Z,15.60
2019-04-26T12:56:51.689Z,15.60
2019-04-26T12:59:22.379Z,15.70
2019-04-26T13:02:04.950Z,15.80
2019-04-26T13:04:35.506Z,15.80
2019-04-26T13:07:06.936Z,15.70
2019-04-26T13:09:37.435Z,15.30
2019-04-26T13:12:21.736Z,15.00
2019-04-26T13:15:00.924Z,15.40
2019-04-26T13:17:35.638Z,15.60
2019-04-26T13:20:07.037Z,15.70
2019-04-26T13:22:45.862Z,15.80
2019-04-26T13:25:15.495Z,15.90
2019-04-26T13:27:41.676Z,16.00
2019-04-26T13:30:14.639Z,16.00
2019-04-26T13:32:44.576Z,16.10
2019-04-26T13:35:14.863Z,16.20
2019-04-26T13:37:44.853Z,16.10
2019-04-26T13:40:14.987Z,15.00
2019-04-26T13:42:47.477Z,15.10
2019-04-26T13:45:38.436Z,14.80
2019-04-26T13:48:29.358Z,14.40
2019-04-26T13:51:05.661Z,15.30
2019-04-26T13:53:35.940Z,15.90
2019-04-26T13:56:06.068Z,16.20
2019-04-26T13:58:37.719Z,16.30
2019-04-26T14:01:08.338Z,16.40
2019-04-26T14:03:38.464Z,16.40
2019-04-26T14:06:09.535Z,16.50
2019-04-26T14:08:39.406Z,16.50
2019-04-26T14:11:09.372Z,16.50
2019-04-26T14:13:39.383Z,16.50
2019-04-26T14:16:09.871Z,16.40
2019-04-26T14:18:40.743Z,16.40
2019-04-26T14:21:11.272Z,16.40
2019-04-26T14:23:49.509Z,16.30
2019-04-26T14:26:28.428Z,16.30
2019-04-26T14:28:59.674Z,16.30
2019-04-26T14:31:30.134Z,16.20
2019-04-26T14:34:01.306Z,16.20
2019-04-26T14:36:32.647Z,16.10
2019-04-26T14:39:06.030Z,16.10
2019-04-26T14:41:34.111Z,16.00
2019-04-26T14:44:14.846Z,16.00
2019-04-26T14:46:47.997Z,15.90
2019-04-26T14:49:08.088Z,15.90
2019-04-26T14:51:40.546Z,15.90
2019-04-26T14:54:16.438Z,15.80
2019-04-26T14:56:52.280Z,15.80
2019-04-26T14:59:39.446Z,15.80
2019-04-26T15:02:28.156Z,15.70
2019-04-26T15:05:09.201Z,15.70
2019-04-26T15:07:48.554Z,15.60
2019-04-26T15:10:11.823Z,15.70
2019-04-26T15:12:46.948Z,15.60
2019-04-26T15:15:14.157Z,15.60
2019-04-26T15:17:44.124Z,15.60
2019-04-26T15:20:16.774Z,15.50
2019-04-26T15:22:48.729Z,15.50
2019-04-26T15:25:17.779Z,15.50
2019-04-26T15:27:48.176Z,15.50
2019-04-26T15:30:18.112Z,15.50
2019-04-26T15:32:48.359Z,15.40
2019-04-26T15:35:18.714Z,15.40
2019-04-26T15:37:48.468Z,15.40
2019-04-26T15:40:52.655Z,15.40
2019-04-26T15:43:32.777Z,15.40
2019-04-26T15:46:20.333Z,15.40
2019-04-26T15:48:58.911Z,15.40
2019-04-26T15:51:33.237Z,15.40
2019-04-26T15:54:03.291Z,15.30
2019-04-26T15:56:33.204Z,15.30
2019-04-26T15:59:03.564Z,15.30
2019-04-26T16:01:34.027Z,15.20
2019-04-26T16:04:06.636Z,15.20
2019-04-26T16:06:41.431Z,15.20
2019-04-26T16:09:13.941Z,15.20
2019-04-26T16:11:42.831Z,15.10
2019-04-26T16:14:13.749Z,15.10
2019-04-26T16:16:44.001Z,15.00
2019-04-26T16:19:14.222Z,15.10
2019-04-26T16:21:44.421Z,14.90
2019-04-26T16:24:14.999Z,15.00
2019-04-26T16:26:55.689Z,15.00
2019-04-26T16:29:42.467Z,15.00
2019-04-26T16:32:29.848Z,15.00
2019-04-26T16:34:59.976Z,15.00
2019-04-26T16:37:30.194Z,14.90
2019-04-26T16:40:00.321Z,15.00
2019-04-26T16:42:30.669Z,15.00
2019-04-26T16:45:04.611Z,14.90
2019-04-26T16:47:35.427Z,15.00
2019-04-26T16:50:05.455Z,14.90
2019-04-26T16:52:42.337Z,15.00
2019-04-26T16:55:15.383Z,14.90
2019-04-26T16:57:44.014Z,14.90
2019-04-26T17:00:15.798Z,14.40
2019-04-26T17:02:44.049Z,14.00
2019-04-26T17:05:21.023Z,13.70
2019-04-26T17:07:58.818Z,13.00
2019-04-26T17:10:37.903Z,13.20
2019-04-26T17:13:07.799Z,14.20
2019-04-26T17:15:38.047Z,14.70
2019-04-26T17:18:08.257Z,14.90
2019-04-26T17:20:40.549Z,15.00
2019-04-26T17:23:29.840Z,15.10
2019-04-26T17:26:24.420Z,15.00
2019-04-26T17:28:55.629Z,15.10
2019-04-26T17:31:57.892Z,15.10
2019-04-26T17:34:59.569Z,15.10
2019-04-26T17:37:30.517Z,15.10
2019-04-26T17:40:01.559Z,15.10
2019-04-26T17:42:36.439Z,15.10
2019-04-26T17:45:06.811Z,15.10
2019-04-26T17:47:39.881Z,15.10
2019-04-26T17:50:12.942Z,15.00
2019-04-26T17:52:44.219Z,15.00
2019-04-26T17:55:15.239Z,15.00
2019-04-26T17:57:50.660Z,15.00
2019-04-26T18:00:28.431Z,14.90
2019-04-26T18:02:59.285Z,14.90
2019-04-26T18:05:41.959Z,14.90
2019-04-26T18:08:33.877Z,14.90
2019-04-26T18:10:48.724Z,14.90
2019-04-26T18:13:18.581Z,14.80
2019-04-26T18:15:49.925Z,14.70
2019-04-26T18:18:38.463Z,14.80
2019-04-26T18:21:27.881Z,14.80
2019-04-26T18:23:57.915Z,14.70
2019-04-26T18:26:28.636Z,14.70
2019-04-26T18:28:58.600Z,14.70
2019-04-26T18:31:30.169Z,14.70
2019-04-26T18:34:01.840Z,14.70
2019-04-26T18:36:32.139Z,14.60
2019-04-26T18:39:03.979Z,14.50
2019-04-26T18:41:34.027Z,14.50
2019-04-26T18:44:03.885Z,14.50
2019-04-26T18:46:49.599Z,14.40
2019-04-26T18:49:22.773Z,14.40
2019-04-26T18:51:54.665Z,14.30
2019-04-26T18:54:41.445Z,14.30
2019-04-26T18:57:15.614Z,14.30
2019-04-26T18:59:44.769Z,14.30
2019-04-26T19:02:25.385Z,14.20
2019-04-26T19:05:03.716Z,14.10
2019-04-26T19:07:36.695Z,14.10
2019-04-26T19:10:14.472Z,14.10
2019-04-26T19:12:46.118Z,14.10
2019-04-26T19:15:25.590Z,14.10
2019-04-26T19:18:12.479Z,14.00
2019-04-26T19:21:14.374Z,14.00
2019-04-26T19:23:44.554Z,14.00
2019-04-26T19:26:31.756Z,13.90
2019-04-26T19:28:53.555Z,13.90
2019-04-26T19:31:27.128Z,13.90
2019-04-26T19:33:56.528Z,13.90
2019-04-26T19:36:29.311Z,13.80
2019-04-26T19:39:00.895Z,13.80
2019-04-26T19:41:31.523Z,13.80
2019-04-26T19:44:01.922Z,13.70
2019-04-26T19:46:49.779Z,13.70
2019-04-26T19:49:36.764Z,13.60
2019-04-26T19:52:15.607Z,13.60
2019-04-26T19:54:53.040Z,13.60
2019-04-26T19:57:39.185Z,13.60
2019-04-26T20:00:10.081Z,13.60
2019-04-26T20:02:41.990Z,13.50
2019-04-26T20:05:12.150Z,13.50
2019-04-26T20:07:42.433Z,13.40
2019-04-26T20:10:23.320Z,13.40
2019-04-26T20:12:53.407Z,13.40
2019-04-26T20:15:27.936Z,13.40
2019-04-26T20:17:59.685Z,13.40
2019-04-26T20:20:27.954Z,13.30
2019-04-26T20:23:03.385Z,13.30
2019-04-26T20:25:31.961Z,13.30
2019-04-26T20:28:05.496Z,13.20
2019-04-26T20:30:57.939Z,13.20
2019-04-26T20:33:31.319Z,13.10
2019-04-26T20:36:03.347Z,13.10
2019-04-26T20:38:35.855Z,13.10
2019-04-26T20:41:03.689Z,13.10
2019-04-26T20:43:36.313Z,13.00
2019-04-26T20:46:14.003Z,13.00
2019-04-26T20:48:39.018Z,13.00
2019-04-26T20:51:10.892Z,12.90
2019-04-26T20:53:43.704Z,12.90
2019-04-26T20:56:18.160Z,12.80
2019-04-26T20:58:47.139Z,12.80
2019-04-26T21:01:18.214Z,12.80
2019-04-26T21:03:48.246Z,12.70
2019-04-26T21:06:18.763Z,12.70
2019-04-26T21:08:48.782Z,12.60
2019-04-26T21:11:18.792Z,12.60
2019-04-26T21:13:51.788Z,12.60
2019-04-26T21:16:22.170Z,12.50
2019-04-26T21:18:52.483Z,12.50
2019-04-26T21:21:22.450Z,12.50
2019-04-26T21:23:52.834Z,12.50
2019-04-26T21:26:46.585Z,12.50
2019-04-26T21:29:28.525Z,12.40
2019-04-26T21:32:10.053Z,12.30
2019-04-26T21:34:44.904Z,12.30
2019-04-26T21:37:37.973Z,12.30
2019-04-26T21:40:23.191Z,12.20
2019-04-26T21:42:55.329Z,12.20
2019-04-26T21:45:28.473Z,12.20
2019-04-26T21:47:57.814Z,12.20
2019-04-26T21:50:29.083Z,12.10
2019-04-26T21:53:03.376Z,12.10
2019-04-26T21:55:35.256Z,12.10
2019-04-26T21:58:04.984Z,12.00
2019-04-26T22:01:04.809Z,12.00
2019-04-26T22:03:35.777Z,11.90
2019-04-26T22:06:05.853Z,11.90
2019-04-26T22:08:38.650Z,11.90
2019-04-26T22:11:08.550Z,11.80
2019-04-26T22:13:47.537Z,11.80
2019-04-26T22:16:34.123Z,11.80
2019-04-26T22:19:09.352Z,11.80
2019-04-26T22:21:46.869Z,11.80
2019-04-26T22:24:30.926Z,11.80
2019-04-26T22:27:01.403Z,11.70
2019-04-26T22:29:36.344Z,11.70
2019-04-26T22:32:11.579Z,11.70
2019-04-26T22:34:46.042Z,11.70
2019-04-26T22:37:23.157Z,11.60
2019-04-26T22:39:46.680Z,11.60
2019-04-26T22:42:18.208Z,11.60
2019-04-26T22:44:54.620Z,11.60
2019-04-26T22:47:33.887Z,11.50
2019-04-26T22:50:03.882Z,11.50
2019-04-26T22:52:34.094Z,11.50
2019-04-26T22:55:05.463Z,11.40
2019-04-26T22:57:35.688Z,11.40
2019-04-26T23:00:06.268Z,11.40
2019-04-26T23:02:36.558Z,11.40
2019-04-26T23:05:07.041Z,11.40
2019-04-26T23:07:37.275Z,11.40
2019-04-26T23:10:13.015Z,11.40
2019-04-26T23:13:04.658Z,11.40
2019-04-26T23:15:48.303Z,11.40
2019-04-26T23:18:27.306Z,11.30
2019-04-26T23:21:00.480Z,11.20
2019-04-26T23:23:30.652Z,11.30
2019-04-26T23:26:02.362Z,11.30
2019-04-26T23:28:36.901Z,11.20
2019-04-26T23:31:08.169Z,11.20
2019-04-26T23:33:38.851Z,11.20
2019-04-26T23:36:09.450Z,11.20
2019-04-26T23:38:39.306Z,11.20
2019-04-26T23:41:10.696Z,11.20
2019-04-26T23:43:40.802Z,11.20
2019-04-26T23:46:10.867Z,11.10
2019-04-26T23:48:42.739Z,11.10
2019-04-26T23:51:12.834Z,11.10
2019-04-26T23:53:43.022Z,11.10
2019-04-26T23:56:16.159Z,11.10
2019-04-26T23:58:45.715Z,11.00
